Flight Track Log - Related Links

Times and Time Zones

All times are in EDT time to prevent confusion due to time zone crossing. See the CHQ4749 flight status page for this flight to view local times or setup timezone preferences in your user account.

Time Position Orientation Groundspeed Altitude Reporting Facility
EDT Latitude Longitude Course Direction KTS MPH feet Rate Location/Type
Mon 05:41:16 AM 42.7761 -73.8086 303° West 167 192 1,200  Level Boston Center
Mon 05:41:22 AM 42.7806 -73.8072 13° North 165 190 1,300 2,156 Climbing Boston Center
Mon 05:42:20 AM 42.8192 -73.8447 325° Northwest 179 206 3,500 2,256 Climbing Boston Center
Mon 05:43:00 AM 42.6943 -74.2230 283° West  Level Estimated
Mon 05:43:19 AM 42.8619 -73.9019 316° Northwest 200 230 5,700  Level Boston Center
Mon 05:43:23 AM 42.8619 -73.9019 316° Northwest 205 236 5,700 1,869 Level Boston Center
Mon 05:44:00 AM 42.6757 -74.3631 281° West  Level Estimated
Mon 05:44:20 AM 42.9083 -73.9633 316° Northwest 228 262 7,600  Level Boston Center
Mon 05:45:00 AM 42.7320 -74.4832 303° West  Level FlightAware Approximate
Mon 05:45:20 AM 42.9583 -74.0331 314° West 255 293 9,700  Level Boston Center
Mon 05:46:00 AM 42.7882 -74.6036 303° West  Level FlightAware Approximate
Mon 05:46:22 AM 42.9719 -74.1347 280° West 278 320 11,200  Level Boston Center
Mon 05:47:21 AM 42.9839 -74.2508 278° West 309 356 12,500 1,289 Climbing Boston Center
Mon 05:48:23 AM 42.9964 -74.3756 278° West 330 380 13,800 1,400 Climbing Boston Center
Mon 05:49:21 AM 43.0094 -74.5047 278° West 345 397 15,300 1,525 Climbing Boston Center
Mon 05:50:21 AM 43.0217 -74.6358 277° West 349 402 16,800 1,488 Climbing Boston Center
Mon 05:51:22 AM 43.0331 -74.7669 277° West 349 402 18,300 1,339 Climbing Boston Center
Mon 05:52:22 AM 43.0439 -74.8792 278° West 349 402 19,500 1,339 Climbing Boston Center
Mon 05:53:23 AM 43.0558 -75.0122 277° West 349 402 21,000 1,488 Climbing Boston Center
Mon 05:54:23 AM 43.0692 -75.1472 278° West 353 406 22,500 1,537 Climbing Boston Center
Mon 05:55:24 AM 43.0811 -75.2833 277° West 355 409 24,100 1,488 Climbing Boston Center
Mon 05:56:24 AM 43.0931 -75.4172 277° West 352 405 25,500 950 Climbing Boston Center
Mon 05:57:24 AM 43.1047 -75.5558 277° West 361 415 26,000 248 Climbing Boston Center
Mon 05:58:25 AM 43.1172 -75.7025 277° West 377 434 26,000  Level Boston Center
Mon 05:59:27 AM 43.1317 -75.8581 277° West 401 461 26,000  Level Boston Center
Mon 06:00:27 AM 43.1458 -76.0153 277° West 413 475 26,000  Level Boston Center
Mon 06:01:25 AM 43.1581 -76.1728 276° West 415 478 26,000  Level Boston Center
Mon 06:02:26 AM 43.1231 -76.3203 252° West 412 474 26,000  Level Boston Center
Mon 06:03:26 AM 43.0786 -76.4661 247° West 414 476 26,000  Level Boston Center
Mon 06:04:28 AM 43.0217 -76.6400 246° West 418 481 26,000  Level Cleveland Center
Mon 06:05:28 AM 42.9742 -76.7881 246° West 417 480 26,000  Level Cleveland Center
Mon 06:06:29 AM 42.9264 -76.9342 246° West 421 484 26,000  Level Cleveland Center
Mon 06:07:30 AM 42.8775 -77.0792 245° Southwest 421 484 26,000  Level Cleveland Center
Mon 06:08:30 AM 42.8181 -77.2175 240° Southwest 422 486 26,000  Level Cleveland Center
Mon 06:09:31 AM 42.7594 -77.3558 240° Southwest 423 487 26,000  Level Cleveland Center
Mon 06:10:31 AM 42.6997 -77.4953 240° Southwest 426 490 26,000  Level Cleveland Center
Mon 06:11:32 AM 42.6417 -77.6303 240° Southwest 426 490 26,000  Level Cleveland Center
Mon 06:12:33 AM 42.5814 -77.7697 240° Southwest 427 491 26,000  Level Cleveland Center
Mon 06:13:33 AM 42.5253 -77.8983 239° Southwest 431 496 26,000  Level Cleveland Center
Mon 06:14:34 AM 42.4647 -78.0378 240° Southwest 430 495 26,000  Level Cleveland Center
Mon 06:15:35 AM 42.4036 -78.2119 245° Southwest 429 494 26,000  Level Cleveland Center
Mon 06:16:35 AM 42.3600 -78.3650 249° West 435 501 26,000  Level Cleveland Center
Mon 06:17:36 AM 42.3172 -78.5147 249° West 430 495 26,000  Level Cleveland Center
Mon 06:18:37 AM 42.2725 -78.6653 248° West 431 496 26,000  Level Cleveland Center
Mon 06:19:38 AM 42.2289 -78.8169 249° West 433 498 26,000  Level Cleveland Center
Mon 06:20:38 AM 42.1858 -78.9708 249° West 431 496 26,000  Level Cleveland Center
Mon 06:21:39 AM 42.1425 -79.1206 249° West 432 497 26,000  Level Cleveland Center
Mon 06:22:40 AM 42.0969 -79.2725 248° West 440 506 26,000  Level Cleveland Center
Mon 06:23:41 AM 42.0525 -79.4214 248° West 438 504 26,000  Level Cleveland Center
Mon 06:24:42 AM 42.0086 -79.5689 248° West 432 497 26,000  Level Cleveland Center
Mon 06:25:43 AM 41.9619 -79.7217 248° West 447 514 26,000  Level Cleveland Center
Mon 06:26:44 AM 41.9156 -79.8736 248° West 442 509 26,000  Level Cleveland Center
Mon 06:27:45 AM 41.8633 -80.0519 249° West 437 503 26,000 -344 Level Cleveland Center
Mon 06:28:46 AM 41.8167 -80.2031 248° West 438 504 25,300 -1,574 Descending Cleveland Center
Mon 06:29:47 AM 41.7706 -80.3481 247° West 418 481 22,800 -2,508 Descending Cleveland Center
Mon 06:30:48 AM 41.7281 -80.4808 247° West 388 447 20,200 -2,459 Descending Cleveland Center
Mon 06:31:49 AM 41.6886 -80.6094 248° West 373 429 17,800 -2,311 Descending Cleveland Center
Mon 06:32:50 AM 41.6483 -80.7369 247° West 371 427 15,500 -2,262 Descending Cleveland Center
Mon 06:33:51 AM 41.6103 -80.8608 248° West 360 414 13,200 -2,211 Descending Cleveland Center
Mon 06:34:06 AM 41.6039 -80.8897 254° West 354 407 12,700 -2,164 Descending Cleveland Center
Mon 06:34:52 AM 41.5731 -80.9794 245° Southwest 348 400 11,000 -2,375 Descending Cleveland Center
Mon 06:34:54 AM 41.5725 -80.9883 265° West 342 394 10,800 -984 Descending Cleveland Center
Mon 06:35:53 AM 41.5367 -81.0944 246° West 337 388 10,000 -716 Descending Cleveland Center
Mon 06:36:01 AM 41.5325 -81.1136 254° West 330 380 10,000  Level Cleveland Center
Mon 06:36:54 AM 41.5219 -81.2106 262° West 328 377 10,000  Level Cleveland Center
Mon 06:37:01 AM 41.5286 -81.2303 294° West 330 380 10,000 -492 Level Cleveland Center
Mon 06:37:55 AM 41.5486 -81.3131 288° West 299 344 9,500 -787 Descending Cleveland Center
Mon 06:38:02 AM 41.5558 -81.3267 305° West 269 310 9,200 -1,714 Descending Cleveland Center
Mon 06:38:51 AM 41.5919 -81.3936 306° West 264 304 7,900 -1,527 Descending Cleveland Center
Mon 06:38:57 AM 41.5900 -81.3956 217° Southwest 269 310 7,800 -1,600 Descending Cleveland Center
Mon 06:39:51 AM 41.6117 -81.4806 289° West 250 288 6,300 -1,475 Descending Cleveland Center
Mon 06:39:58 AM 41.6097 -81.4817 203° Southwest 249 287 6,300 -985 Level Cleveland Center
Mon 06:40:58 AM 41.5931 -81.5700 256° West 213 245 5,200 -984 Descending Cleveland Center
Mon 06:40:59 AM 41.5958 -81.5631 62° Northeast 233 268 5,300 -982 Climbing Cleveland Center
Mon 06:41:53 AM 41.5567 -81.6256 230° Southwest 219 252 4,300 -984 Descending Cleveland Center
Mon 06:42:00 AM 41.5547 -81.6231 136° Southeast 224 258 4,300 -295 Level Cleveland Center
Mon 06:42:54 AM 41.5222 -81.6817 233° Southwest 183 211 4,000 -290 Descending Cleveland Center
Mon 06:43:02 AM 41.5197 -81.6794 146° Southeast 209 241 4,000 -900 Level Cleveland Center
Mon 06:43:54 AM 41.4906 -81.7294 232° Southwest 169 194 3,100 -885 Descending Cleveland Center
Mon 06:44:03 AM 41.4897 -81.7275 120° Southeast 185 213 3,100 -857 Level Cleveland Center
Mon 06:45:04 AM 41.4561 -81.7786 229° Southwest 164 189 2,100 -943 Descending Cleveland Center
Mon 06:45:13 AM 41.4536 -81.7878 250° West 145 167 2,000 -689 Descending Cleveland Center
Mon 06:46:05 AM 41.4342 -81.8158 227° Southwest 138 159 1,400 -655 Descending Cleveland Center
Mon 06:46:08 AM 41.4339 -81.8208 266° West 124 143 1,400 -484 Level Cleveland Center
Mon 06:47:07 AM 41.4133 -81.8478 225° Southwest 135 155 900 -508 Descending Cleveland Center

Login

Don't have an account? Register now (free) for customized features, flight alerts, and more!